Time;durP1;ratioP1;P1;durP2;ratioP2;P2;SDS_P1;SDS_P2;PMS_P1;PMS_P2;Temp;Humidity;BMP_temperature;BMP_pressure;BME280_temperature;BME280_humidity;BME280_pressure;Samples;Min_cycle;Max_cycle;Signal;HPM_P1;HPM_P2
2022/04/20 00:01:09;;;;;;;18.73;10.70;;;7.60;99.90;;;;;;5026964;28;20049;-65
2022/04/20 00:03:34;;;;;;;20.85;11.02;;;7.70;99.90;;;;;;5026847;28;20037;-65
2022/04/20 00:06:00;;;;;;;23.70;11.10;;;7.70;99.90;;;;;;5027403;28;20025;-65
2022/04/20 00:08:29;;;;;;;25.85;12.20;;;7.70;99.90;;;;;;5029505;28;20075;-64
2022/04/20 00:10:55;;;;;;;20.58;12.30;;;7.80;99.90;;;;;;5029927;28;20140;-65
2022/04/20 00:13:21;;;;;;;23.00;11.02;;;7.80;99.90;;;;;;5029877;28;20120;-65
2022/04/20 00:15:49;;;;;;;23.85;11.98;;;7.80;99.90;;;;;;5029961;28;20021;-65
2022/04/20 00:18:15;;;;;;;20.70;11.85;;;7.80;99.90;;;;;;5027240;28;20036;-65
2022/04/20 00:20:41;;;;;;;25.98;12.70;;;7.80;99.90;;;;;;5009649;28;20405;-65
2022/04/20 00:23:06;;;;;;;25.00;13.48;;;7.80;99.90;;;;;;5009448;28;20034;-64
2022/04/20 00:25:33;;;;;;;22.88;11.30;;;7.80;99.90;;;;;;5010016;28;20515;-64
2022/04/20 00:27:59;;;;;;;26.98;12.88;;;7.80;99.90;;;;;;5008665;28;20412;-65
2022/04/20 00:30:25;;;;;;;26.45;12.80;;;7.80;99.90;;;;;;5009717;28;20156;-65
2022/04/20 00:32:50;;;;;;;27.20;13.48;;;7.80;99.90;;;;;;5009793;28;20097;-65
2022/04/20 00:35:16;;;;;;;23.70;12.55;;;7.80;99.90;;;;;;5009557;28;20026;-65
2022/04/20 00:37:42;;;;;;;24.35;12.05;;;7.80;99.90;;;;;;5009692;28;20113;-65
2022/04/20 00:40:08;;;;;;;22.15;11.70;;;7.80;99.90;;;;;;5009824;28;20046;-65
2022/04/20 00:42:38;;;;;;;27.02;12.10;;;7.80;99.90;;;;;;5009570;28;20030;-65
2022/04/20 00:45:04;;;;;;;20.98;12.18;;;7.80;99.90;;;;;;5009732;28;20601;-65
2022/04/20 00:47:30;;;;;;;20.52;10.73;;;7.90;99.90;;;;;;5009849;28;20026;-65
2022/04/20 00:49:57;;;;;;;23.88;13.00;;;7.90;99.90;;;;;;5009252;28;20044;-65
2022/04/20 00:52:22;;;;;;;25.17;11.60;;;7.80;99.90;;;;;;5009716;28;20101;-64
2022/04/20 00:54:48;;;;;;;19.95;10.57;;;7.80;99.90;;;;;;5009177;28;20457;-64
2022/04/20 00:57:15;;;;;;;21.63;11.88;;;7.90;99.90;;;;;;5009641;28;20030;-65
2022/04/20 00:59:42;;;;;;;21.48;11.07;;;7.90;99.90;;;;;;5008272;28;20026;-65
2022/04/20 01:02:08;;;;;;;18.65;10.70;;;7.90;99.90;;;;;;5008304;28;20028;-65
2022/04/20 01:04:33;;;;;;;21.67;10.77;;;7.90;99.90;;;;;;5004998;28;20500;-65
2022/04/20 01:07:08;;;;;;;21.52;11.13;;;8.00;99.90;;;;;;5007355;28;20034;-65
2022/04/20 01:09:34;;;;;;;22.75;11.85;;;8.00;99.90;;;;;;5009331;28;20038;-64
2022/04/20 01:11:59;;;;;;;20.73;11.57;;;8.00;99.90;;;;;;5009381;28;20222;-65
2022/04/20 01:14:25;;;;;;;24.98;11.52;;;7.90;99.90;;;;;;5009446;28;20030;-65
2022/04/20 01:16:51;;;;;;;23.85;12.60;;;7.90;99.90;;;;;;5009586;28;20093;-65
2022/04/20 01:19:16;;;;;;;21.90;11.35;;;7.80;99.90;;;;;;5009031;28;20344;-64
2022/04/20 01:21:42;;;;;;;21.25;11.15;;;7.80;99.90;;;;;;5016642;28;20033;-65
2022/04/20 01:24:08;;;;;;;24.63;11.43;;;7.70;99.90;;;;;;5028649;28;20045;-65
2022/04/20 01:26:35;;;;;;;20.52;10.75;;;7.70;99.90;;;;;;5029295;28;20129;-65
2022/04/20 01:29:02;;;;;;;22.65;10.75;;;7.70;99.90;;;;;;5029074;28;20103;-65
2022/04/20 01:31:29;;;;;;;20.05;11.02;;;7.60;99.90;;;;;;5029165;28;20030;-64
2022/04/20 01:33:55;;;;;;;24.40;10.95;;;7.70;99.90;;;;;;5030492;28;20209;-64
2022/04/20 01:36:20;;;;;;;22.08;11.07;;;7.70;99.90;;;;;;5032461;28;20040;-65
2022/04/20 01:38:46;;;;;;;19.30;10.80;;;7.70;99.90;;;;;;5032146;28;20029;-65
2022/04/20 01:41:12;;;;;;;20.42;11.23;;;7.70;99.90;;;;;;5032609;28;20037;-65
2022/04/20 01:43:38;;;;;;;23.42;12.40;;;7.60;99.90;;;;;;5032480;28;20087;-65
2022/04/20 01:46:03;;;;;;;19.75;11.32;;;7.60;99.90;;;;;;5031023;28;20372;-65
2022/04/20 01:48:29;;;;;;;20.60;11.65;;;7.60;99.90;;;;;;5031185;28;20057;-65
2022/04/20 01:53:38;;;;;;;20.05;11.13;;;7.60;99.90;;;;;;5029011;28;20032;-65
2022/04/20 01:56:06;;;;;;;23.58;11.40;;;7.60;99.90;;;;;;5029020;28;20359;-65
2022/04/20 01:58:33;;;;;;;21.20;11.88;;;7.50;99.90;;;;;;5029059;28;20522;-65
2022/04/20 02:00:59;;;;;;;22.40;11.80;;;7.60;99.90;;;;;;5029053;28;20037;-65
2022/04/20 02:03:25;;;;;;;22.30;12.02;;;7.50;99.90;;;;;;5028852;28;20029;-66
2022/04/20 02:05:50;;;;;;;21.92;11.18;;;7.50;99.90;;;;;;5032236;28;20456;-65
2022/04/20 02:08:17;;;;;;;21.50;11.88;;;7.40;99.90;;;;;;5031688;28;20396;-65
2022/04/20 02:10:43;;;;;;;24.60;12.35;;;7.40;99.90;;;;;;5031940;28;20113;-65
2022/04/20 02:13:08;;;;;;;22.85;12.30;;;7.40;99.90;;;;;;5030648;28;20105;-65
2022/04/20 02:15:34;;;;;;;22.88;11.63;;;7.40;99.90;;;;;;5024987;28;20022;-64
2022/04/20 02:18:00;;;;;;;25.27;12.55;;;7.40;99.90;;;;;;5012058;28;20026;-65
2022/04/20 02:20:27;;;;;;;23.52;12.60;;;7.40;99.90;;;;;;5009245;28;20026;-65
2022/04/20 02:22:52;;;;;;;24.95;12.38;;;7.40;99.90;;;;;;5008433;28;20385;-65
2022/04/20 02:25:18;;;;;;;27.52;12.73;;;7.40;99.90;;;;;;5008589;28;20046;-64
2022/04/20 02:27:44;;;;;;;29.52;13.70;;;7.40;99.90;;;;;;5008380;28;20501;-65
2022/04/20 02:30:10;;;;;;;26.73;13.07;;;7.40;99.90;;;;;;5010855;28;20026;-64
2022/04/20 02:32:35;;;;;;;22.92;12.35;;;7.40;99.90;;;;;;5011757;28;20045;-64
2022/04/20 02:35:01;;;;;;;25.92;12.05;;;7.40;99.90;;;;;;5011605;28;20026;-65
2022/04/20 02:37:27;;;;;;;30.77;12.90;;;7.40;99.90;;;;;;5011707;28;20580;-65
2022/04/20 02:39:53;;;;;;;26.00;13.20;;;7.40;99.90;;;;;;5011517;28;20044;-65
2022/04/20 02:42:18;;;;;;;25.85;12.50;;;7.30;99.90;;;;;;5011594;28;20030;-64
2022/04/20 02:44:44;;;;;;;25.15;13.07;;;7.30;99.90;;;;;;5011173;28;20103;-64
2022/04/20 02:47:10;;;;;;;26.58;13.02;;;7.30;99.90;;;;;;5011492;28;20034;-64
2022/04/20 02:49:35;;;;;;;25.42;12.82;;;7.30;99.90;;;;;;5011224;28;20499;-65
2022/04/20 02:52:02;;;;;;;25.75;13.15;;;7.30;99.90;;;;;;5011420;28;20052;-64
2022/04/20 02:54:29;;;;;;;24.52;13.50;;;7.30;99.90;;;;;;5011124;28;20030;-64
2022/04/20 02:56:55;;;;;;;27.02;12.57;;;7.30;99.90;;;;;;5011363;28;20109;-64
2022/04/20 02:59:20;;;;;;;27.27;13.65;;;7.20;99.90;;;;;;5011222;28;20100;-64
2022/04/20 03:01:46;;;;;;;27.20;13.32;;;7.20;99.90;;;;;;5011210;28;20057;-65
2022/04/20 03:04:12;;;;;;;29.30;13.65;;;7.20;99.90;;;;;;5011036;28;20084;-64
2022/04/20 03:06:38;;;;;;;29.88;13.35;;;7.10;99.90;;;;;;5011347;28;20076;-65
2022/04/20 03:09:04;;;;;;;24.05;13.25;;;7.10;99.90;;;;;;5010970;28;20025;-64
2022/04/20 03:11:29;;;;;;;27.17;13.38;;;7.10;99.90;;;;;;5012054;28;20022;-65
2022/04/20 03:13:56;;;;;;;25.73;13.75;;;7.10;99.90;;;;;;5029763;28;20068;-64
2022/04/20 03:16:23;;;;;;;24.88;14.15;;;7.00;99.90;;;;;;5030770;28;20095;-64
2022/04/20 03:18:49;;;;;;;28.50;14.88;;;7.00;99.90;;;;;;5030739;28;20032;-65
2022/04/20 03:21:15;;;;;;;25.52;13.50;;;7.00;99.90;;;;;;5029252;28;20037;-64
2022/04/20 03:23:41;;;;;;;24.67;13.82;;;7.00;99.90;;;;;;5010844;28;20040;-65
2022/04/20 03:26:06;;;;;;;29.60;14.90;;;6.90;99.90;;;;;;5010774;28;20081;-65
2022/04/20 03:28:32;;;;;;;26.48;14.30;;;6.90;99.90;;;;;;5009438;28;20033;-65
2022/04/20 03:30:59;;;;;;;30.55;13.30;;;6.90;99.90;;;;;;5010635;28;20030;-64
2022/04/20 03:33:25;;;;;;;27.30;14.55;;;6.80;99.90;;;;;;5010663;28;20481;-64
2022/04/20 03:35:51;;;;;;;27.83;13.77;;;6.80;99.90;;;;;;5010395;28;20521;-64
2022/04/20 03:38:17;;;;;;;26.70;13.90;;;6.70;99.90;;;;;;5010408;28;20038;-64
2022/04/20 03:40:43;;;;;;;27.85;13.23;;;6.70;99.90;;;;;;5010819;28;20026;-66
2022/04/20 03:43:08;;;;;;;26.95;14.05;;;6.60;99.90;;;;;;5010648;28;20034;-67
2022/04/20 03:45:34;;;;;;;28.55;14.70;;;6.60;99.90;;;;;;5010497;28;20172;-64
2022/04/20 03:48:00;;;;;;;24.75;13.90;;;6.50;99.90;;;;;;5010397;28;20022;-64
2022/04/20 03:50:26;;;;;;;28.30;13.30;;;6.50;99.90;;;;;;5010119;28;20500;-64
2022/04/20 03:52:51;;;;;;;28.20;14.18;;;6.40;99.90;;;;;;5019740;28;20038;-64
2022/04/20 03:55:17;;;;;;;24.95;13.63;;;6.40;99.90;;;;;;5010517;28;20033;-64
2022/04/20 03:57:43;;;;;;;26.30;13.85;;;6.30;99.90;;;;;;5009724;28;20432;-64
2022/04/20 04:00:09;;;;;;;26.88;14.10;;;6.30;99.90;;;;;;5010193;28;20021;-64
2022/04/20 04:02:35;;;;;;;24.63;13.95;;;6.20;99.90;;;;;;5010179;28;20036;-64
2022/04/20 04:05:01;;;;;;;29.83;15.35;;;6.20;99.90;;;;;;5009951;28;20034;-64
2022/04/20 04:07:27;;;;;;;27.77;14.70;;;6.20;99.90;;;;;;5010400;28;20034;-65
2022/04/20 04:09:52;;;;;;;26.10;16.02;;;6.10;99.90;;;;;;5009861;28;20056;-64
2022/04/20 04:12:24;;;;;;;26.20;14.18;;;6.10;99.90;;;;;;5010035;28;20030;-64
2022/04/20 04:14:50;;;;;;;29.38;15.25;;;6.10;99.90;;;;;;5024799;28;20073;-64
2022/04/20 04:17:16;;;;;;;29.63;14.73;;;6.10;99.90;;;;;;5026973;28;20096;-65
2022/04/20 04:19:42;;;;;;;29.15;14.32;;;6.10;99.90;;;;;;5026709;28;20116;-66
2022/04/20 04:22:07;;;;;;;29.67;15.55;;;6.00;99.90;;;;;;5028656;28;20445;-66
2022/04/20 04:24:36;;;;;;;30.30;15.73;;;6.00;99.90;;;;;;5029391;28;20088;-65
2022/04/20 04:27:07;;;;;;;30.13;15.27;;;6.00;99.90;;;;;;5029316;28;20053;-66
2022/04/20 04:29:33;;;;;;;34.90;16.40;;;6.00;99.90;;;;;;5029846;28;20053;-66
2022/04/20 04:32:00;;;;;;;31.38;14.93;;;6.00;99.90;;;;;;5027461;28;20033;-66
2022/04/20 04:34:26;;;;;;;38.80;17.02;;;6.00;99.90;;;;;;5026774;28;20623;-66
2022/04/20 04:36:53;;;;;;;31.90;15.55;;;6.00;99.90;;;;;;5026312;28;20523;-66
2022/04/20 04:39:21;;;;;;;36.47;16.13;;;6.00;99.90;;;;;;5029104;28;20459;-66
2022/04/20 04:41:48;;;;;;;36.40;17.27;;;6.10;99.90;;;;;;5028245;28;20033;-65
2022/04/20 04:44:18;;;;;;;28.77;15.48;;;6.10;99.90;;;;;;5029547;28;20052;-65
2022/04/20 04:49:28;;;;;;;37.65;15.73;;;6.20;99.90;;;;;;5029205;28;20443;-66
2022/04/20 04:51:55;;;;;;;34.00;16.38;;;6.20;99.90;;;;;;5029374;28;20466;-65
2022/04/20 04:54:21;;;;;;;31.85;16.98;;;6.20;99.90;;;;;;5029154;28;20440;-66
2022/04/20 04:56:47;;;;;;;33.17;15.55;;;6.20;99.90;;;;;;5029234;28;20380;-66
2022/04/20 04:59:13;;;;;;;32.00;16.48;;;6.20;99.90;;;;;;5029353;28;20033;-66
2022/04/20 05:01:38;;;;;;;31.98;16.50;;;6.30;99.90;;;;;;5026961;28;20022;-66
2022/04/20 05:04:05;;;;;;;35.67;15.73;;;6.30;99.90;;;;;;5026250;28;20095;-65
2022/04/20 05:06:31;;;;;;;36.17;16.10;;;6.30;99.90;;;;;;5025791;28;20029;-65
2022/04/20 05:08:56;;;;;;;39.22;17.02;;;6.40;99.90;;;;;;5031125;28;20691;-65
2022/04/20 05:11:22;;;;;;;35.33;17.02;;;6.40;99.90;;;;;;5033170;28;20381;-65
2022/04/20 05:13:48;;;;;;;35.72;18.25;;;6.50;99.90;;;;;;5032894;28;20029;-65
2022/04/20 05:16:13;;;;;;;33.63;17.25;;;6.60;99.90;;;;;;5020170;28;20477;-65
2022/04/20 05:18:39;;;;;;;36.05;17.83;;;6.70;99.90;;;;;;5013074;28;20048;-65
2022/04/20 05:21:05;;;;;;;37.13;17.92;;;6.70;99.90;;;;;;5012799;28;20033;-65
2022/04/20 05:23:30;;;;;;;34.63;17.63;;;6.90;99.90;;;;;;5012917;28;20026;-65
2022/04/20 05:25:56;;;;;;;36.03;17.02;;;7.00;99.90;;;;;;5011830;28;20053;-66
2022/04/20 05:28:22;;;;;;;31.52;16.67;;;7.10;99.90;;;;;;5009878;28;20029;-65
2022/04/20 05:30:48;;;;;;;35.80;18.05;;;7.10;99.90;;;;;;5009865;28;20388;-66
2022/04/20 05:33:14;;;;;;;35.63;19.10;;;7.20;99.90;;;;;;5009874;28;20112;-65
2022/04/20 05:35:40;;;;;;;32.25;16.65;;;7.20;99.90;;;;;;5009921;28;20110;-66
2022/04/20 05:43:33;;;;;;;34.13;16.98;;;7.40;99.90;;;;;;5009797;28;20037;-66
2022/04/20 05:45:59;;;;;;;37.92;18.85;;;7.50;99.90;;;;;;5009292;28;20030;-65
2022/04/20 05:48:25;;;;;;;39.70;18.40;;;7.60;99.90;;;;;;5012902;28;20034;-64
2022/04/20 05:50:51;;;;;;;31.98;16.63;;;7.60;99.90;;;;;;5012728;28;20029;-65
2022/04/20 05:53:16;;;;;;;34.10;16.25;;;7.70;99.90;;;;;;5030230;28;20123;-66
2022/04/20 05:55:42;;;;;;;38.35;18.52;;;7.70;99.90;;;;;;5032271;28;20394;-65
2022/04/20 05:58:08;;;;;;;39.28;18.45;;;7.80;99.90;;;;;;5032347;28;20476;-65
2022/04/20 06:00:34;;;;;;;37.33;17.80;;;7.90;99.90;;;;;;5031533;28;20044;-65
2022/04/20 06:03:00;;;;;;;38.10;19.25;;;8.00;99.90;;;;;;5029011;28;20030;-67
2022/04/20 06:05:25;;;;;;;37.38;18.95;;;8.20;99.90;;;;;;5029131;28;20430;-65
2022/04/20 06:07:51;;;;;;;35.38;18.42;;;8.30;99.90;;;;;;5027500;28;20029;-65
2022/04/20 06:10:16;;;;;;;34.58;17.60;;;8.40;99.90;;;;;;5029619;28;20041;-65
2022/04/20 06:12:42;;;;;;;35.78;17.90;;;8.50;99.90;;;;;;5029486;28;20031;-66
2022/04/20 06:15:08;;;;;;;34.53;17.67;;;8.60;99.90;;;;;;5022459;28;20029;-65
2022/04/20 06:17:35;;;;;;;32.47;17.92;;;8.70;99.90;;;;;;5011843;28;20088;-66
2022/04/20 06:20:01;;;;;;;34.97;18.15;;;8.80;99.90;;;;;;5011546;28;20021;-66
2022/04/20 06:22:27;;;;;;;35.47;18.55;;;8.90;99.90;;;;;;5011084;28;20049;-66
2022/04/20 06:24:53;;;;;;;36.63;18.42;;;9.10;99.90;;;;;;5008980;28;20033;-66
2022/04/20 06:27:18;;;;;;;33.97;18.58;;;9.30;99.90;;;;;;5008647;28;20244;-64
2022/04/20 06:29:44;;;;;;;34.47;18.52;;;9.40;99.90;;;;;;5011294;28;20105;-64
2022/04/20 06:32:10;;;;;;;33.25;17.00;;;9.60;99.90;;;;;;5009777;28;20018;-64
2022/04/20 06:34:36;;;;;;;39.55;18.73;;;9.70;99.90;;;;;;5008808;28;20393;-64
2022/04/20 06:37:03;;;;;;;30.98;17.58;;;9.90;99.90;;;;;;5010207;28;20092;-64
2022/04/20 06:39:28;;;;;;;38.83;19.02;;;10.10;99.90;;;;;;5011653;28;20037;-63
2022/04/20 06:41:54;;;;;;;35.60;17.10;;;10.20;99.90;;;;;;5010209;28;20022;-64
2022/04/20 06:44:20;;;;;;;34.97;16.77;;;10.40;99.90;;;;;;5008000;28;20037;-64
2022/04/20 06:46:46;;;;;;;38.28;19.45;;;10.40;99.90;;;;;;5009241;28;20107;-64
2022/04/20 06:49:13;;;;;;;34.28;19.27;;;10.50;99.90;;;;;;5011479;28;20157;-65
2022/04/20 06:59:53;;;;;;;35.28;18.25;;;11.00;99.90;;;;;;5008257;28;20033;-63
2022/04/20 07:02:20;;;;;;;36.17;18.55;;;11.30;99.90;;;;;;5008162;28;20101;-63
2022/04/20 07:04:46;;;;;;;32.00;17.45;;;11.60;99.90;;;;;;5007845;28;20405;-63
2022/04/20 07:07:13;;;;;;;31.38;17.23;;;11.90;99.90;;;;;;5007663;28;20599;-63
2022/04/20 07:09:38;;;;;;;32.20;16.58;;;12.40;99.90;;;;;;5007576;28;20397;-63
2022/04/20 07:12:04;;;;;;;35.28;18.17;;;12.90;99.90;;;;;;5008106;28;20461;-64
2022/04/20 07:14:30;;;;;;;28.95;17.63;;;13.40;99.90;;;;;;5014215;28;20034;-63
2022/04/20 07:16:56;;;;;;;28.38;16.92;;;14.00;99.20;;;;;;5030661;28;20443;-63
2022/04/20 07:19:21;;;;;;;25.75;15.70;;;14.50;96.40;;;;;;5030548;28;20029;-63
2022/04/20 07:21:47;;;;;;;30.95;16.55;;;14.80;95.00;;;;;;5024766;28;20029;-62
2022/04/20 07:24:13;;;;;;;30.80;18.25;;;15.00;93.20;;;;;;5010878;28;20033;-62
2022/04/20 07:26:38;;;;;;;29.83;17.77;;;15.30;92.10;;;;;;5010635;28;20409;-63
2022/04/20 07:29:04;;;;;;;26.77;17.15;;;15.50;91.30;;;;;;5011006;28;20508;-62
2022/04/20 07:31:29;;;;;;;29.70;16.17;;;15.80;90.20;;;;;;5010124;28;20109;-62
2022/04/20 07:33:55;;;;;;;30.75;15.57;;;15.90;90.00;;;;;;5010547;28;20507;-62
2022/04/20 07:36:21;;;;;;;26.00;16.20;;;16.00;90.00;;;;;;5010568;28;20033;-62
2022/04/20 07:38:48;;;;;;;25.27;15.98;;;15.50;89.70;;;;;;5010286;28;20026;-62
2022/04/20 07:41:15;;;;;;;24.70;15.10;;;15.70;91.10;;;;;;5010432;28;20034;-64
2022/04/20 07:43:41;;;;;;;25.92;15.65;;;15.70;90.40;;;;;;5010218;28;20088;-64
2022/04/20 07:46:07;;;;;;;23.13;14.52;;;15.50;89.90;;;;;;5007669;28;20033;-64
2022/04/20 07:48:32;;;;;;;27.15;14.75;;;15.20;90.60;;;;;;5007402;28;20030;-65
2022/04/20 07:51:00;;;;;;;26.85;15.18;;;15.00;92.50;;;;;;5006982;28;20029;-63
2022/04/20 07:53:27;;;;;;;23.38;14.55;;;15.40;92.20;;;;;;5007541;28;20026;-63
2022/04/20 07:55:52;;;;;;;22.60;14.10;;;16.20;90.70;;;;;;5007190;28;20034;-63
2022/04/20 07:58:18;;;;;;;22.95;13.80;;;16.70;85.10;;;;;;5007556;28;20026;-64
2022/04/20 08:00:45;;;;;;;20.70;14.20;;;17.40;79.50;;;;;;5010407;28;20083;-63
2022/04/20 08:03:18;;;;;;;21.75;13.98;;;18.20;76.30;;;;;;5010167;28;20033;-64
2022/04/20 08:05:50;;;;;;;25.25;14.60;;;19.10;68.40;;;;;;5010500;28;20038;-63
2022/04/20 08:08:18;;;;;;;21.70;14.00;;;19.20;65.60;;;;;;5010340;28;20120;-63
2022/04/20 08:10:44;;;;;;;23.33;13.15;;;19.60;59.30;;;;;;5010369;28;20045;-63
2022/04/20 08:15:55;;;;;;;24.58;14.07;;;20.60;56.40;;;;;;5012934;28;20029;-63
2022/04/20 08:18:21;;;;;;;22.35;13.57;;;20.80;51.40;;;;;;5010403;28;20033;-63
2022/04/20 08:20:47;;;;;;;21.05;13.00;;;21.10;50.10;;;;;;5009951;28;20045;-63
2022/04/20 08:23:13;;;;;;;17.83;12.27;;;20.90;50.10;;;;;;5008742;28;20025;-63
2022/04/20 08:25:42;;;;;;;19.77;12.85;;;21.50;47.70;;;;;;5006747;28;20057;-63
2022/04/20 08:28:09;;;;;;;19.77;11.95;;;21.50;45.00;;;;;;5007662;28;20512;-64
2022/04/20 08:30:36;;;;;;;21.08;12.00;;;21.70;45.90;;;;;;5010108;28;20041;-64
2022/04/20 08:33:06;;;;;;;16.55;11.30;;;22.30;44.50;;;;;;5009703;28;20030;-66
2022/04/20 08:35:32;;;;;;;15.90;11.43;;;22.30;38.20;;;;;;5010033;28;20041;-64
2022/04/20 08:37:57;;;;;;;16.83;10.10;;;22.70;35.10;;;;;;5010037;28;20030;-62
2022/04/20 08:40:24;;;;;;;16.65;10.07;;;23.20;35.10;;;;;;5009990;28;20073;-66
2022/04/20 08:42:50;;;;;;;15.88;11.05;;;23.60;31.30;;;;;;5012059;28;20030;-64
2022/04/20 08:45:16;;;;;;;16.17;10.63;;;23.60;30.00;;;;;;5013623;28;20393;-64
2022/04/20 08:47:45;;;;;;;17.80;11.00;;;23.80;27.90;;;;;;5014176;28;20346;-65
2022/04/20 08:50:11;;;;;;;17.17;10.90;;;23.90;27.70;;;;;;5013860;28;20408;-65
2022/04/20 08:52:37;;;;;;;13.88;9.05;;;24.00;28.00;;;;;;5013974;28;20496;-65
2022/04/20 08:55:07;;;;;;;14.02;9.23;;;25.00;25.00;;;;;;5013660;28;20026;-65
2022/04/20 08:57:37;;;;;;;13.00;8.95;;;25.70;23.50;;;;;;5013835;28;20022;-65
2022/04/20 09:00:06;;;;;;;14.60;9.32;;;25.60;23.40;;;;;;5013760;28;20025;-65
2022/04/20 09:02:32;;;;;;;12.75;9.05;;;26.00;21.40;;;;;;5010483;28;20506;-63
2022/04/20 09:04:58;;;;;;;14.20;8.90;;;26.50;21.80;;;;;;5010470;28;20054;-66
2022/04/20 09:07:25;;;;;;;14.52;8.65;;;26.60;20.10;;;;;;5012958;28;20030;-65
2022/04/20 09:09:52;;;;;;;11.88;8.00;;;27.00;19.40;;;;;;5013397;28;20077;-65
2022/04/20 09:12:19;;;;;;;12.63;7.78;;;27.30;18.80;;;;;;5013288;28;20018;-65
2022/04/20 09:14:50;;;;;;;12.40;7.95;;;28.40;17.60;;;;;;5013305;28;20484;-65
2022/04/20 09:17:19;;;;;;;11.93;7.75;;;29.00;16.90;;;;;;5014505;28;20081;-65
2022/04/20 09:19:46;;;;;;;12.00;8.05;;;28.70;16.80;;;;;;5013320;28;20038;-65
2022/04/20 09:22:19;;;;;;;12.15;7.75;;;27.10;16.90;;;;;;5030352;28;20033;-65
2022/04/20 09:25:11;;;;;;;12.77;7.65;;;25.80;17.90;;;;;;5029283;28;20503;-64
2022/04/20 09:27:41;;;;;;;11.25;7.75;;;23.80;20.40;;;;;;5028129;28;20045;-63
2022/04/20 09:30:10;;;;;;;12.40;7.30;;;23.00;23.30;;;;;;5032811;28;20067;-63
2022/04/20 09:32:40;;;;;;;11.40;7.13;;;22.60;23.20;;;;;;5032783;28;20112;-63
2022/04/20 09:35:09;;;;;;;12.13;6.88;;;23.70;23.50;;;;;;5032381;28;20131;-64
2022/04/20 09:37:36;;;;;;;11.40;7.30;;;25.50;21.30;;;;;;5032945;28;20033;-67
2022/04/20 09:40:05;;;;;;;10.82;6.93;;;27.00;20.10;;;;;;5030457;28;20021;-68
2022/04/20 09:42:32;;;;;;;13.25;7.13;;;27.80;17.90;;;;;;5028322;28;20488;-63
2022/04/20 09:45:06;;;;;;;12.48;6.93;;;28.50;16.60;;;;;;5030812;28;20396;-64
2022/04/20 09:50:27;;;;;;;9.38;5.65;;;31.30;14.70;;;;;;5029372;28;20534;-66
2022/04/20 09:52:55;;;;;;;9.75;6.30;;;32.30;13.60;;;;;;5029165;28;20032;-65
2022/04/20 09:55:28;;;;;;;8.98;6.05;;;32.20;11.60;;;;;;5028506;28;20029;-65
2022/04/20 09:58:11;;;;;;;11.07;6.07;;;33.10;11.90;;;;;;5030294;28;20041;-62
2022/04/20 10:00:42;;;;;;;10.32;6.00;;;33.00;11.70;;;;;;5032876;28;20037;-63
2022/04/20 10:03:08;;;;;;;8.27;5.43;;;31.70;12.40;;;;;;5032376;28;20029;-64
2022/04/20 10:05:34;;;;;;;7.38;5.35;;;30.70;12.40;;;;;;5031750;28;20029;-63
2022/04/20 10:08:02;;;;;;;9.43;5.13;;;30.30;12.10;;;;;;5029039;28;20040;-63
2022/04/20 10:10:32;;;;;;;9.77;5.35;;;30.40;13.50;;;;;;5029362;28;20022;-62
2022/04/20 10:13:00;;;;;;;9.07;5.60;;;30.60;12.70;;;;;;5032421;28;20029;-63
2022/04/20 10:18:18;;;;;;;8.23;5.15;;;30.00;13.10;;;;;;5032451;28;20423;-63
2022/04/20 10:20:49;;;;;;;9.00;5.13;;;30.30;13.20;;;;;;5031854;28;20078;-63
2022/04/20 10:23:18;;;;;;;10.70;4.75;;;31.00;12.40;;;;;;5026843;28;20029;-63
2022/04/20 10:25:45;;;;;;;7.07;4.32;;;32.80;12.50;;;;;;5028542;28;20569;-62
2022/04/20 10:28:36;;;;;;;9.85;4.82;;;34.00;11.00;;;;;;5028255;28;20187;-62
2022/04/20 10:31:29;;;;;;;8.48;4.57;;;34.80;10.20;;;;;;4983154;28;20034;-62
2022/04/20 10:33:55;;;;;;;9.27;5.03;;;32.70;10.30;;;;;;5028738;28;20025;-63
2022/04/20 10:36:54;;;;;;;10.13;5.18;;;34.00;10.60;;;;;;5028658;28;20045;-63
2022/04/20 10:39:22;;;;;;;7.63;4.47;;;35.40;9.50;;;;;;5028171;28;20392;-63
2022/04/20 10:42:11;;;;;;;9.98;5.00;;;36.70;8.90;;;;;;5028609;28;20021;-63
2022/04/20 10:45:07;;;;;;;8.55;4.15;;;37.40;9.20;;;;;;5019167;28;20053;-63
2022/04/20 10:47:38;;;;;;;8.38;4.20;;;34.70;8.10;;;;;;5012120;28;20045;-65
2022/04/20 10:50:26;;;;;;;6.07;4.32;;;35.40;8.30;;;;;;5028335;28;20497;-66
2022/04/20 10:53:01;;;;;;;8.93;4.07;;;35.90;7.70;;;;;;5016758;28;20038;-64
2022/04/20 10:55:36;;;;;;;8.20;4.00;;;35.80;8.80;;;;;;5009589;28;20062;-65
2022/04/20 10:58:19;;;;;;;7.53;3.78;;;35.10;7.80;;;;;;5008657;28;20049;-65
2022/04/20 11:00:45;;;;;;;6.82;3.97;;;35.40;7.60;;;;;;5008558;28;20022;-65
2022/04/20 11:03:12;;;;;;;7.15;3.80;;;35.80;7.00;;;;;;5008789;28;20388;-66
2022/04/20 11:05:57;;;;;;;5.95;3.97;;;36.70;7.20;;;;;;5007088;28;20124;-67
2022/04/20 11:08:24;;;;;;;7.53;3.85;;;37.10;6.90;;;;;;5025569;28;20364;-65
2022/04/20 11:19:53;;;;;;;7.95;3.85;;;33.30;9.60;;;;;;5027762;28;20040;-65
2022/04/20 11:22:19;;;;;;;6.22;4.38;;;33.60;9.90;;;;;;5017788;28;20032;-65
2022/04/20 11:24:48;;;;;;;7.15;4.18;;;34.30;9.40;;;;;;5007941;28;20037;-65
2022/04/20 11:27:14;;;;;;;11.60;5.25;;;36.10;8.10;;;;;;5007780;28;20062;-65
2022/04/20 11:29:43;;;;;;;8.55;4.65;;;37.20;7.00;;;;;;5007656;28;20033;-66
2022/04/20 11:32:10;;;;;;;8.98;5.10;;;37.80;7.60;;;;;;5007903;28;20018;-65
2022/04/20 11:34:37;;;;;;;6.55;4.45;;;38.20;6.50;;;;;;5007876;28;20041;-65
2022/04/20 11:37:06;;;;;;;7.93;4.53;;;39.00;6.10;;;;;;5007755;28;20087;-65
2022/04/20 11:39:32;;;;;;;8.00;4.70;;;38.60;6.30;;;;;;5005937;28;20033;-66
2022/04/20 11:42:03;;;;;;;9.18;4.57;;;38.50;6.40;;;;;;5007676;28;20041;-64
2022/04/20 11:44:34;;;;;;;7.18;4.22;;;38.20;6.00;;;;;;5007828;28;20057;-66
2022/04/20 11:47:04;;;;;;;8.23;5.03;;;38.30;6.50;;;;;;5007864;28;20492;-66
2022/04/20 11:49:31;;;;;;;7.80;4.40;;;37.60;6.40;;;;;;5007836;28;20029;-66
2022/04/20 11:51:57;;;;;;;8.00;3.83;;;37.70;6.90;;;;;;5007644;28;20430;-66
2022/04/20 11:54:25;;;;;;;8.30;4.22;;;38.10;7.00;;;;;;5007040;28;20041;-68
2022/04/20 11:56:51;;;;;;;8.65;5.20;;;38.10;6.30;;;;;;5007518;28;20022;-67
2022/04/20 11:59:28;;;;;;;9.02;4.90;;;38.00;5.80;;;;;;5007042;28;20374;-66
2022/04/20 12:01:55;;;;;;;8.30;4.60;;;38.40;6.10;;;;;;5007206;28;20071;-67
2022/04/20 12:04:26;;;;;;;7.43;4.32;;;38.80;6.20;;;;;;5007424;28;20046;-65
2022/04/20 12:06:59;;;;;;;5.47;3.92;;;37.70;6.10;;;;;;5005837;28;20022;-67
2022/04/20 12:09:36;;;;;;;8.25;4.13;;;37.50;6.30;;;;;;5006952;28;20527;-67
2022/04/20 12:12:08;;;;;;;8.65;4.15;;;37.10;6.10;;;;;;5007666;28;20036;-67
2022/04/20 12:14:38;;;;;;;9.50;4.68;;;35.80;5.90;;;;;;5007316;28;20030;-69
2022/04/20 12:17:05;;;;;;;;;;;34.40;6.90;;;;;;5006065;28;20030;-66
2022/04/20 12:19:32;;;;;;;7.30;4.38;;;33.20;8.70;;;;;;5009526;28;20004;-66
2022/04/20 12:22:09;;;;;;;6.55;4.03;;;31.30;9.50;;;;;;5007118;28;20042;-64
2022/04/20 12:24:36;;;;;;;7.05;4.53;;;29.10;11.00;;;;;;5006777;28;20584;-63
2022/04/20 12:27:02;;;;;;;8.00;4.40;;;28.80;11.80;;;;;;5006872;28;20536;-64
2022/04/20 12:29:32;;;;;;;9.85;4.47;;;29.80;11.30;;;;;;5006782;28;20057;-64
2022/04/20 12:31:57;;;;;;;5.97;4.07;;;31.50;10.20;;;;;;5007172;28;20430;-64
2022/04/20 12:34:30;;;;;;;7.57;4.10;;;33.10;9.00;;;;;;5006847;28;20052;-64
2022/04/20 12:37:06;;;;;;;6.60;4.00;;;33.80;8.40;;;;;;5006784;28;20026;-66
2022/04/20 12:39:34;;;;;;;6.07;3.90;;;34.20;7.80;;;;;;5006604;28;20071;-64
2022/04/20 12:42:06;;;;;;;6.60;4.30;;;34.70;7.80;;;;;;5007127;28;20042;-61
2022/04/20 12:44:38;;;;;;;7.00;3.78;;;35.20;7.30;;;;;;5006603;28;20124;-64
2022/04/20 12:47:16;;;;;;;6.53;3.80;;;35.60;7.80;;;;;;5006859;28;20034;-64
2022/04/20 12:49:48;;;;;;;7.30;4.30;;;36.10;7.30;;;;;;5006542;28;20413;-63
2022/04/20 12:52:17;;;;;;;9.13;4.57;;;36.50;7.40;;;;;;5006624;28;20034;-64
2022/04/20 12:54:53;;;;;;;5.95;4.10;;;36.00;6.90;;;;;;5006191;28;20410;-65
2022/04/20 13:03:12;;;;;;;7.10;4.82;;;36.10;7.00;;;;;;5006840;28;20037;-63
2022/04/20 13:05:42;;;;;;;6.82;3.95;;;35.30;6.30;;;;;;5006473;28;20042;-64
2022/04/20 13:08:09;;;;;;;;;;;35.30;7.10;;;;;;5006866;28;20033;-64
2022/04/20 13:10:35;;;;;;;7.50;4.13;;;34.70;7.10;;;;;;5006430;28;19952;-64
2022/04/20 13:13:01;;;;;;;6.95;4.32;;;34.80;7.00;;;;;;5006630;28;20523;-63
2022/04/20 13:15:30;;;;;;;9.25;4.68;;;34.60;5.90;;;;;;5006443;28;20029;-64
2022/04/20 13:18:00;;;;;;;6.20;3.75;;;34.00;6.20;;;;;;5006334;28;20085;-63
2022/04/20 13:20:28;;;;;;;3.50;3.20;;;34.40;6.60;;;;;;5012220;28;20022;-65
2022/04/20 13:22:54;;;;;;;5.45;3.75;;;34.20;6.30;;;;;;5011212;28;20033;-64
2022/04/20 13:28:05;;;;;;;6.70;3.75;;;32.50;6.50;;;;;;5006166;28;20073;-64